Aviation Digital Data Service (ADDS)

Output produced by METARs form (0220 UTC 22 April 2019)
found at http://www.aviationweather.gov/metar/data/
 
Forecast for: AMD
Text: TAF AMD EKAH 220051Z 2200/2224 18005KT CAVOK
Forecast period: 0000 to 0500 UTC 22 April 2019
Forecast type: FROM: standard forecast or significant change
Winds: from the S (180 degrees) at 6 MPH (5 knots; 2.6 m/s)
Visibility: 6 or more miles 10+ km)
Ceiling: unknown
Clouds: missing
Weather: NSW  (no significant weather)
Text: PROB40 2200/2204 2500 BR
Forecast period: 0000 to 0400 UTC 22 April 2019
Forecast type: PROBABLE: 40 percent likelihood of the following during this time
Visibility: 1.55 miles (2.49 km)
Ceiling: unknown
Clouds: missing
Weather: BR  (mist)
Text: BECMG 2205/2208 12012KT
Forecast period: 0500 UTC 22 April 2019 to 0000 UTC 23 April 2019
Forecast type: BECOMING: Conditions expected to become as follows by 0800 UTC 22 April 2019
Winds: from the ESE (120 degrees) at 14 MPH (12 knots; 6.2 m/s)
Visibility: 6 or more miles 10+ km)
Ceiling: unknown
Clouds: missing
Weather: NSW  (no significant weather)